sensor_id;sensor_type;location;lat;lon;timestamp;temperature;humidity
77100;SHT31;66602;48.922;2.414;2023-03-12T00:00:48;8.29;92.88
77100;SHT31;66602;48.922;2.414;2023-03-12T00:03:15;8.32;92.92
77100;SHT31;66602;48.922;2.414;2023-03-12T00:05:42;8.37;92.63
77100;SHT31;66602;48.922;2.414;2023-03-12T00:08:08;8.42;92.47
77100;SHT31;66602;48.922;2.414;2023-03-12T00:10:37;8.42;92.52
77100;SHT31;66602;48.922;2.414;2023-03-12T00:13:03;8.44;92.58
77100;SHT31;66602;48.922;2.414;2023-03-12T00:15:29;8.46;92.46
77100;SHT31;66602;48.922;2.414;2023-03-12T00:17:55;8.40;92.60
77100;SHT31;66602;48.922;2.414;2023-03-12T00:20:22;8.47;92.88
77100;SHT31;66602;48.922;2.414;2023-03-12T00:22:48;8.50;92.61
77100;SHT31;66602;48.922;2.414;2023-03-12T00:25:14;8.47;92.75
77100;SHT31;66602;48.922;2.414;2023-03-12T00:27:41;8.56;92.64
77100;SHT31;66602;48.922;2.414;2023-03-12T00:30:08;8.56;92.30
77100;SHT31;66602;48.922;2.414;2023-03-12T00:32:35;8.61;92.33
77100;SHT31;66602;48.922;2.414;2023-03-12T00:35:01;8.61;92.51
77100;SHT31;66602;48.922;2.414;2023-03-12T00:37:26;8.66;92.33
77100;SHT31;66602;48.922;2.414;2023-03-12T00:39:52;8.60;92.64
77100;SHT31;66602;48.922;2.414;2023-03-12T00:42:18;8.56;92.82
77100;SHT31;66602;48.922;2.414;2023-03-12T00:44:44;8.53;92.94
77100;SHT31;66602;48.922;2.414;2023-03-12T00:47:10;8.50;93.35
77100;SHT31;66602;48.922;2.414;2023-03-12T00:49:37;8.43;93.43
77100;SHT31;66602;48.922;2.414;2023-03-12T00:52:03;8.42;93.77
77100;SHT31;66602;48.922;2.414;2023-03-12T00:54:28;8.44;94.03
77100;SHT31;66602;48.922;2.414;2023-03-12T00:56:54;8.53;94.35
77100;SHT31;66602;48.922;2.414;2023-03-12T00:59:19;8.54;94.15
77100;SHT31;66602;48.922;2.414;2023-03-12T01:01:45;8.60;94.07
77100;SHT31;66602;48.922;2.414;2023-03-12T01:04:11;8.61;94.15
77100;SHT31;66602;48.922;2.414;2023-03-12T01:06:37;8.61;94.04
77100;SHT31;66602;48.922;2.414;2023-03-12T01:09:06;8.64;94.03
77100;SHT31;66602;48.922;2.414;2023-03-12T01:11:32;8.66;94.04
77100;SHT31;66602;48.922;2.414;2023-03-12T01:13:58;8.70;94.01
77100;SHT31;66602;48.922;2.414;2023-03-12T01:16:25;8.77;93.85
77100;SHT31;66602;48.922;2.414;2023-03-12T01:18:53;8.75;93.62
77100;SHT31;66602;48.922;2.414;2023-03-12T01:21:19;8.77;93.51
77100;SHT31;66602;48.922;2.414;2023-03-12T01:23:45;8.89;93.38
77100;SHT31;66602;48.922;2.414;2023-03-12T01:26:10;8.91;93.20
77100;SHT31;66602;48.922;2.414;2023-03-12T01:28:36;8.98;92.73
77100;SHT31;66602;48.922;2.414;2023-03-12T01:31:10;9.03;92.83
77100;SHT31;66602;48.922;2.414;2023-03-12T01:33:36;9.08;92.78
77100;SHT31;66602;48.922;2.414;2023-03-12T01:36:02;9.16;92.58
77100;SHT31;66602;48.922;2.414;2023-03-12T01:38:28;9.14;92.49
77100;SHT31;66602;48.922;2.414;2023-03-12T01:40:53;9.10;92.74
77100;SHT31;66602;48.922;2.414;2023-03-12T01:48:32;9.15;92.52
77100;SHT31;66602;48.922;2.414;2023-03-12T01:50:58;9.10;93.01
77100;SHT31;66602;48.922;2.414;2023-03-12T01:53:24;9.16;92.47
77100;SHT31;66602;48.922;2.414;2023-03-12T01:55:50;9.18;92.26
77100;SHT31;66602;48.922;2.414;2023-03-12T01:58:16;9.08;92.09
77100;SHT31;66602;48.922;2.414;2023-03-12T02:00:42;8.85;92.39
77100;SHT31;66602;48.922;2.414;2023-03-12T02:03:10;8.53;92.88
77100;SHT31;66602;48.922;2.414;2023-03-12T02:05:48;8.37;94.19
77100;SHT31;66602;48.922;2.414;2023-03-12T02:08:16;8.46;95.06
77100;SHT31;66602;48.922;2.414;2023-03-12T02:10:42;8.46;94.35
77100;SHT31;66602;48.922;2.414;2023-03-12T02:13:08;8.83;93.29
77100;SHT31;66602;48.922;2.414;2023-03-12T02:15:35;8.63;93.02
77100;SHT31;66602;48.922;2.414;2023-03-12T02:18:02;8.42;93.96
77100;SHT31;66602;48.922;2.414;2023-03-12T02:23:41;8.21;94.58
77100;SHT31;66602;48.922;2.414;2023-03-12T02:26:10;7.99;94.45
77100;SHT31;66602;48.922;2.414;2023-03-12T02:28:36;7.91;94.92
77100;SHT31;66602;48.922;2.414;2023-03-12T02:31:10;7.99;95.71
77100;SHT31;66602;48.922;2.414;2023-03-12T02:33:36;7.98;95.69
77100;SHT31;66602;48.922;2.414;2023-03-12T02:36:02;8.16;95.47
77100;SHT31;66602;48.922;2.414;2023-03-12T02:38:43;8.26;95.24
77100;SHT31;66602;48.922;2.414;2023-03-12T02:43:45;8.28;95.00
77100;SHT31;66602;48.922;2.414;2023-03-12T02:46:12;8.42;94.85
77100;SHT31;66602;48.922;2.414;2023-03-12T02:48:39;8.66;94.45
77100;SHT31;66602;48.922;2.414;2023-03-12T02:51:05;8.66;94.33
77100;SHT31;66602;48.922;2.414;2023-03-12T02:53:30;8.75;94.06
77100;SHT31;66602;48.922;2.414;2023-03-12T02:55:58;8.73;93.99
77100;SHT31;66602;48.922;2.414;2023-03-12T02:58:24;8.91;92.84
77100;SHT31;66602;48.922;2.414;2023-03-12T03:00:49;8.88;93.34
77100;SHT31;66602;48.922;2.414;2023-03-12T03:03:15;9.05;92.27
77100;SHT31;66602;48.922;2.414;2023-03-12T03:05:40;9.07;92.26
77100;SHT31;66602;48.922;2.414;2023-03-12T03:08:06;9.11;92.28
77100;SHT31;66602;48.922;2.414;2023-03-12T03:10:32;9.21;91.92
77100;SHT31;66602;48.922;2.414;2023-03-12T03:12:57;9.34;91.33
77100;SHT31;66602;48.922;2.414;2023-03-12T03:15:23;9.24;91.83
77100;SHT31;66602;48.922;2.414;2023-03-12T03:17:49;9.35;91.30
77100;SHT31;66602;48.922;2.414;2023-03-12T03:20:14;9.29;91.72
77100;SHT31;66602;48.922;2.414;2023-03-12T03:22:40;9.21;92.09
77100;SHT31;66602;48.922;2.414;2023-03-12T03:25:07;9.46;90.53
77100;SHT31;66602;48.922;2.414;2023-03-12T03:27:33;9.36;90.84
77100;SHT31;66602;48.922;2.414;2023-03-12T03:29:59;9.25;91.36
77100;SHT31;66602;48.922;2.414;2023-03-12T03:32:24;9.45;90.52
77100;SHT31;66602;48.922;2.414;2023-03-12T03:34:49;9.38;90.81
77100;SHT31;66602;48.922;2.414;2023-03-12T03:37:15;9.43;90.76
77100;SHT31;66602;48.922;2.414;2023-03-12T03:39:40;9.38;90.93
77100;SHT31;66602;48.922;2.414;2023-03-12T03:42:06;9.39;90.88
77100;SHT31;66602;48.922;2.414;2023-03-12T03:44:31;9.32;90.87
77100;SHT31;66602;48.922;2.414;2023-03-12T03:46:57;9.24;91.08
77100;SHT31;66602;48.922;2.414;2023-03-12T03:49:23;9.12;91.48
77100;SHT31;66602;48.922;2.414;2023-03-12T03:51:48;9.08;91.62
77100;SHT31;66602;48.922;2.414;2023-03-12T03:54:16;8.95;92.02
77100;SHT31;66602;48.922;2.414;2023-03-12T03:56:42;8.80;92.71
77100;SHT31;66602;48.922;2.414;2023-03-12T03:59:08;8.77;92.84
77100;SHT31;66602;48.922;2.414;2023-03-12T04:01:33;8.74;92.80
77100;SHT31;66602;48.922;2.414;2023-03-12T04:04:01;8.75;93.02
77100;SHT31;66602;48.922;2.414;2023-03-12T04:06:27;8.92;92.44
77100;SHT31;66602;48.922;2.414;2023-03-12T04:08:55;9.05;91.59
77100;SHT31;66602;48.922;2.414;2023-03-12T04:11:21;8.98;91.57
77100;SHT31;66602;48.922;2.414;2023-03-12T04:13:47;8.87;91.72
77100;SHT31;66602;48.922;2.414;2023-03-12T04:16:14;9.10;91.29
77100;SHT31;66602;48.922;2.414;2023-03-12T04:18:46;9.01;91.23
77100;SHT31;66602;48.922;2.414;2023-03-12T04:21:14;8.89;91.35
77100;SHT31;66602;48.922;2.414;2023-03-12T04:23:41;8.92;91.63
77100;SHT31;66602;48.922;2.414;2023-03-12T04:26:13;8.83;91.78
77100;SHT31;66602;48.922;2.414;2023-03-12T04:28:39;8.66;92.46
77100;SHT31;66602;48.922;2.414;2023-03-12T04:31:06;8.92;91.45
77100;SHT31;66602;48.922;2.414;2023-03-12T04:33:37;8.91;91.67
77100;SHT31;66602;48.922;2.414;2023-03-12T04:36:04;9.07;90.67
77100;SHT31;66602;48.922;2.414;2023-03-12T04:38:30;8.91;91.15
77100;SHT31;66602;48.922;2.414;2023-03-12T04:41:16;9.04;90.27
77100;SHT31;66602;48.922;2.414;2023-03-12T04:43:46;8.94;90.76
77100;SHT31;66602;48.922;2.414;2023-03-12T04:46:14;9.15;89.83
77100;SHT31;66602;48.922;2.414;2023-03-12T04:48:41;9.26;89.19
77100;SHT31;66602;48.922;2.414;2023-03-12T04:51:07;9.38;88.63
77100;SHT31;66602;48.922;2.414;2023-03-12T04:53:37;9.28;89.15
77100;SHT31;66602;48.922;2.414;2023-03-12T04:56:04;9.11;89.95
77100;SHT31;66602;48.922;2.414;2023-03-12T04:58:30;9.03;90.04
77100;SHT31;66602;48.922;2.414;2023-03-12T05:00:56;9.14;89.94
77100;SHT31;66602;48.922;2.414;2023-03-12T05:03:21;9.18;89.71
77100;SHT31;66602;48.922;2.414;2023-03-12T05:05:47;9.25;89.52
77100;SHT31;66602;48.922;2.414;2023-03-12T05:08:12;9.21;89.65
77100;SHT31;66602;48.922;2.414;2023-03-12T05:10:38;9.12;89.93
77100;SHT31;66602;48.922;2.414;2023-03-12T05:13:04;9.04;90.34
77100;SHT31;66602;48.922;2.414;2023-03-12T05:15:36;9.36;88.88
77100;SHT31;66602;48.922;2.414;2023-03-12T05:18:02;9.50;88.32
77100;SHT31;66602;48.922;2.414;2023-03-12T05:20:27;9.49;88.58
77100;SHT31;66602;48.922;2.414;2023-03-12T05:22:53;9.53;88.26
77100;SHT31;66602;48.922;2.414;2023-03-12T05:25:18;9.50;88.34
77100;SHT31;66602;48.922;2.414;2023-03-12T05:27:44;9.43;88.83
77100;SHT31;66602;48.922;2.414;2023-03-12T05:30:10;9.45;88.40
77100;SHT31;66602;48.922;2.414;2023-03-12T05:32:35;9.56;87.84
77100;SHT31;66602;48.922;2.414;2023-03-12T05:35:01;9.52;87.88
77100;SHT31;66602;48.922;2.414;2023-03-12T05:37:26;9.47;87.98
77100;SHT31;66602;48.922;2.414;2023-03-12T05:39:55;9.57;87.38
77100;SHT31;66602;48.922;2.414;2023-03-12T05:42:23;9.70;86.52
77100;SHT31;66602;48.922;2.414;2023-03-12T05:44:48;9.57;87.51
77100;SHT31;66602;48.922;2.414;2023-03-12T05:47:15;9.62;87.42
77100;SHT31;66602;48.922;2.414;2023-03-12T05:49:41;9.63;87.09
77100;SHT31;66602;48.922;2.414;2023-03-12T05:52:08;9.73;86.37
77100;SHT31;66602;48.922;2.414;2023-03-12T05:54:34;9.65;86.32
77100;SHT31;66602;48.922;2.414;2023-03-12T05:56:59;9.70;85.76
77100;SHT31;66602;48.922;2.414;2023-03-12T05:59:27;9.69;85.49
77100;SHT31;66602;48.922;2.414;2023-03-12T06:01:52;9.65;85.69
77100;SHT31;66602;48.922;2.414;2023-03-12T06:04:18;9.63;85.77
77100;SHT31;66602;48.922;2.414;2023-03-12T06:06:43;9.73;85.11
77100;SHT31;66602;48.922;2.414;2023-03-12T06:09:09;9.62;85.78
77100;SHT31;66602;48.922;2.414;2023-03-12T06:11:34;9.56;86.07
77100;SHT31;66602;48.922;2.414;2023-03-12T06:14:00;9.52;86.10
77100;SHT31;66602;48.922;2.414;2023-03-12T06:16:26;9.63;86.03
77100;SHT31;66602;48.922;2.414;2023-03-12T06:18:53;9.74;85.48
77100;SHT31;66602;48.922;2.414;2023-03-12T06:21:21;9.67;85.68
77100;SHT31;66602;48.922;2.414;2023-03-12T06:23:48;9.63;86.16
77100;SHT31;66602;48.922;2.414;2023-03-12T06:26:14;9.73;85.54
77100;SHT31;66602;48.922;2.414;2023-03-12T06:28:40;9.80;85.39
77100;SHT31;66602;48.922;2.414;2023-03-12T06:31:07;9.79;85.40
77100;SHT31;66602;48.922;2.414;2023-03-12T06:33:33;9.80;85.24
77100;SHT31;66602;48.922;2.414;2023-03-12T06:36:00;9.69;86.16
77100;SHT31;66602;48.922;2.414;2023-03-12T06:38:27;9.47;86.78
77100;SHT31;66602;48.922;2.414;2023-03-12T06:40:59;9.57;86.78
77100;SHT31;66602;48.922;2.414;2023-03-12T06:43:27;9.73;86.08
77100;SHT31;66602;48.922;2.414;2023-03-12T06:45:54;9.80;86.07
77100;SHT31;66602;48.922;2.414;2023-03-12T06:48:21;9.83;85.87
77100;SHT31;66602;48.922;2.414;2023-03-12T06:50:46;9.95;85.54
77100;SHT31;66602;48.922;2.414;2023-03-12T06:53:12;10.07;84.84
77100;SHT31;66602;48.922;2.414;2023-03-12T06:55:37;10.10;84.82
77100;SHT31;66602;48.922;2.414;2023-03-12T06:58:03;10.07;85.16
77100;SHT31;66602;48.922;2.414;2023-03-12T07:00:30;10.13;84.77
77100;SHT31;66602;48.922;2.414;2023-03-12T07:02:56;10.10;84.84
77100;SHT31;66602;48.922;2.414;2023-03-12T07:05:22;10.07;85.28
77100;SHT31;66602;48.922;2.414;2023-03-12T07:07:48;10.10;84.71
77100;SHT31;66602;48.922;2.414;2023-03-12T07:10:14;10.08;84.84
77100;SHT31;66602;48.922;2.414;2023-03-12T07:12:39;10.18;84.19
77100;SHT31;66602;48.922;2.414;2023-03-12T07:15:05;10.15;84.97
77100;SHT31;66602;48.922;2.414;2023-03-12T07:17:31;10.22;84.21
77100;SHT31;66602;48.922;2.414;2023-03-12T07:19:57;10.28;84.06
77100;SHT31;66602;48.922;2.414;2023-03-12T07:22:22;10.30;84.02
77100;SHT31;66602;48.922;2.414;2023-03-12T07:24:48;10.34;83.23
77100;SHT31;66602;48.922;2.414;2023-03-12T07:27:15;10.31;83.96
77100;SHT31;66602;48.922;2.414;2023-03-12T07:29:43;10.33;83.80
77100;SHT31;66602;48.922;2.414;2023-03-12T07:32:10;10.33;83.61
77100;SHT31;66602;48.922;2.414;2023-03-12T07:34:36;10.28;84.07
77100;SHT31;66602;48.922;2.414;2023-03-12T07:37:01;10.34;83.56
77100;SHT31;66602;48.922;2.414;2023-03-12T07:39:27;10.35;83.62
77100;SHT31;66602;48.922;2.414;2023-03-12T07:41:53;10.34;83.78
77100;SHT31;66602;48.922;2.414;2023-03-12T07:44:19;10.41;83.35
77100;SHT31;66602;48.922;2.414;2023-03-12T07:46:44;10.48;82.66
77100;SHT31;66602;48.922;2.414;2023-03-12T07:49:10;10.51;83.03
77100;SHT31;66602;48.922;2.414;2023-03-12T07:51:35;10.66;81.76
77100;SHT31;66602;48.922;2.414;2023-03-12T07:54:01;10.80;81.62
77100;SHT31;66602;48.922;2.414;2023-03-12T07:56:26;10.85;80.64
77100;SHT31;66602;48.922;2.414;2023-03-12T07:58:52;12.68;74.84
77100;SHT31;66602;48.922;2.414;2023-03-12T08:01:18;14.00;69.40
77100;SHT31;66602;48.922;2.414;2023-03-12T08:03:43;14.14;66.71
77100;SHT31;66602;48.922;2.414;2023-03-12T08:06:09;14.85;65.30
77100;SHT31;66602;48.922;2.414;2023-03-12T08:08:35;16.23;61.26
77100;SHT31;66602;48.922;2.414;2023-03-12T08:11:06;15.50;62.16
77100;SHT31;66602;48.922;2.414;2023-03-12T08:13:32;15.87;62.82
77100;SHT31;66602;48.922;2.414;2023-03-12T08:15:58;13.51;69.28
77100;SHT31;66602;48.922;2.414;2023-03-12T08:18:23;12.40;72.54
77100;SHT31;66602;48.922;2.414;2023-03-12T08:20:50;12.67;71.78
77100;SHT31;66602;48.922;2.414;2023-03-12T08:23:16;12.39;72.89
77100;SHT31;66602;48.922;2.414;2023-03-12T08:25:44;12.59;72.32
77100;SHT31;66602;48.922;2.414;2023-03-12T08:28:11;12.16;74.01
77100;SHT31;66602;48.922;2.414;2023-03-12T08:30:36;12.09;74.16
77100;SHT31;66602;48.922;2.414;2023-03-12T08:33:01;12.25;73.88
77100;SHT31;66602;48.922;2.414;2023-03-12T08:35:27;12.11;72.90
77100;SHT31;66602;48.922;2.414;2023-03-12T08:37:53;11.78;75.08
77100;SHT31;66602;48.922;2.414;2023-03-12T08:40:22;11.88;75.69
77100;SHT31;66602;48.922;2.414;2023-03-12T08:42:47;12.37;73.33
77100;SHT31;66602;48.922;2.414;2023-03-12T08:45:13;12.29;73.28
77100;SHT31;66602;48.922;2.414;2023-03-12T08:47:40;12.15;73.66
77100;SHT31;66602;48.922;2.414;2023-03-12T08:50:09;12.18;73.77
77100;SHT31;66602;48.922;2.414;2023-03-12T08:52:35;13.18;71.78
77100;SHT31;66602;48.922;2.414;2023-03-12T08:55:00;14.46;66.25
77100;SHT31;66602;48.922;2.414;2023-03-12T08:57:27;14.93;64.26
77100;SHT31;66602;48.922;2.414;2023-03-12T08:59:53;14.90;64.25
77100;SHT31;66602;48.922;2.414;2023-03-12T09:02:18;13.08;68.40
77100;SHT31;66602;48.922;2.414;2023-03-12T09:04:47;13.31;68.93
77100;SHT31;66602;48.922;2.414;2023-03-12T09:07:13;12.90;69.78
77100;SHT31;66602;48.922;2.414;2023-03-12T09:09:39;13.22;69.58
77100;SHT31;66602;48.922;2.414;2023-03-12T09:12:04;13.70;68.92
77100;SHT31;66602;48.922;2.414;2023-03-12T09:14:30;12.95;70.14
77100;SHT31;66602;48.922;2.414;2023-03-12T09:16:56;12.97;70.76
77100;SHT31;66602;48.922;2.414;2023-03-12T09:19:22;13.72;68.13
77100;SHT31;66602;48.922;2.414;2023-03-12T09:21:47;13.63;68.62
77100;SHT31;66602;48.922;2.414;2023-03-12T09:24:13;14.07;66.26
77100;SHT31;66602;48.922;2.414;2023-03-12T09:26:39;15.23;61.39
77100;SHT31;66602;48.922;2.414;2023-03-12T09:29:04;17.73;55.61
77100;SHT31;66602;48.922;2.414;2023-03-12T09:31:30;16.23;59.45
77100;SHT31;66602;48.922;2.414;2023-03-12T09:33:56;15.46;60.55
77100;SHT31;66602;48.922;2.414;2023-03-12T09:36:21;14.34;63.71
77100;SHT31;66602;48.922;2.414;2023-03-12T09:38:47;16.84;57.75
77100;SHT31;66602;48.922;2.414;2023-03-12T09:41:21;14.95;60.88
77100;SHT31;66602;48.922;2.414;2023-03-12T09:44:01;15.10;61.50
77100;SHT31;66602;48.922;2.414;2023-03-12T09:46:53;16.15;58.33
77100;SHT31;66602;48.922;2.414;2023-03-12T09:49:48;15.00;60.87
77100;SHT31;66602;48.922;2.414;2023-03-12T09:52:31;14.31;63.14
77100;SHT31;66602;48.922;2.414;2023-03-12T09:55:07;14.42;61.54
77100;SHT31;66602;48.922;2.414;2023-03-12T09:57:36;15.37;60.44
77100;SHT31;66602;48.922;2.414;2023-03-12T10:00:03;16.59;54.96
77100;SHT31;66602;48.922;2.414;2023-03-12T10:05:58;17.03;54.18
77100;SHT31;66602;48.922;2.414;2023-03-12T10:08:00;14.83;58.48
77100;SHT31;66602;48.922;2.414;2023-03-12T10:26:21;13.55;63.09
77100;SHT31;66602;48.922;2.414;2023-03-12T10:28:51;16.50;55.63
77100;SHT31;66602;48.922;2.414;2023-03-12T10:31:24;19.40;47.24
77100;SHT31;66602;48.922;2.414;2023-03-12T10:33:54;19.95;45.01
77100;SHT31;66602;48.922;2.414;2023-03-12T10:36:38;20.66;41.96
77100;SHT31;66602;48.922;2.414;2023-03-12T10:39:13;17.66;49.00
77100;SHT31;66602;48.922;2.414;2023-03-12T10:41:41;16.23;53.05
77100;SHT31;66602;48.922;2.414;2023-03-12T10:44:08;15.36;56.84
77100;SHT31;66602;48.922;2.414;2023-03-12T10:52:14;13.94;61.00
77100;SHT31;66602;48.922;2.414;2023-03-12T10:54:41;13.87;61.00
77100;SHT31;66602;48.922;2.414;2023-03-12T10:57:10;14.07;60.94
77100;SHT31;66602;48.922;2.414;2023-03-12T10:59:38;14.09;60.55
77100;SHT31;66602;48.922;2.414;2023-03-12T11:04:58;15.24;56.40
77100;SHT31;66602;48.922;2.414;2023-03-12T11:07:30;14.93;55.85
77100;SHT31;66602;48.922;2.414;2023-03-12T11:12:33;14.46;59.35
77100;SHT31;66602;48.922;2.414;2023-03-12T11:17:43;14.80;58.39
77100;SHT31;66602;48.922;2.414;2023-03-12T11:22:47;14.61;57.83
77100;SHT31;66602;48.922;2.414;2023-03-12T11:25:30;14.65;58.61
77100;SHT31;66602;48.922;2.414;2023-03-12T11:27:59;14.51;58.55
77100;SHT31;66602;48.922;2.414;2023-03-12T11:30:34;14.13;59.44
77100;SHT31;66602;48.922;2.414;2023-03-12T11:33:01;13.97;60.34
77100;SHT31;66602;48.922;2.414;2023-03-12T11:38:39;13.96;58.67
77100;SHT31;66602;48.922;2.414;2023-03-12T11:44:13;14.34;58.24
77100;SHT31;66602;48.922;2.414;2023-03-12T11:46:47;14.48;58.27
77100;SHT31;66602;48.922;2.414;2023-03-12T11:52:55;14.71;57.60
77100;SHT31;66602;48.922;2.414;2023-03-12T11:58:24;14.71;58.38
77100;SHT31;66602;48.922;2.414;2023-03-12T12:06:54;14.88;58.61
77100;SHT31;66602;48.922;2.414;2023-03-12T12:25:58;15.44;54.94
77100;SHT31;66602;48.922;2.414;2023-03-12T12:39:34;19.71;44.02
77100;SHT31;66602;48.922;2.414;2023-03-12T12:42:05;19.87;43.06
77100;SHT31;66602;48.922;2.414;2023-03-12T12:44:41;19.51;43.24
77100;SHT31;66602;48.922;2.414;2023-03-12T12:47:12;19.74;43.10
77100;SHT31;66602;48.922;2.414;2023-03-12T12:49:42;21.28;40.13
77100;SHT31;66602;48.922;2.414;2023-03-12T12:52:15;20.59;40.81
77100;SHT31;66602;48.922;2.414;2023-03-12T12:54:55;19.88;42.08
77100;SHT31;66602;48.922;2.414;2023-03-12T12:57:36;18.04;46.29
77100;SHT31;66602;48.922;2.414;2023-03-12T13:00:20;15.89;52.45
77100;SHT31;66602;48.922;2.414;2023-03-12T13:02:48;15.68;52.78
77100;SHT31;66602;48.922;2.414;2023-03-12T13:05:20;16.70;50.75
77100;SHT31;66602;48.922;2.414;2023-03-12T13:07:47;16.33;51.09
77100;SHT31;66602;48.922;2.414;2023-03-12T13:10:39;16.59;51.26
77100;SHT31;66602;48.922;2.414;2023-03-12T13:13:18;18.44;47.87
77100;SHT31;66602;48.922;2.414;2023-03-12T13:15:45;18.36;46.40
77100;SHT31;66602;48.922;2.414;2023-03-12T13:34:40;16.20;51.05
77100;SHT31;66602;48.922;2.414;2023-03-12T13:37:10;16.57;50.24
77100;SHT31;66602;48.922;2.414;2023-03-12T13:39:35;16.18;50.12
77100;SHT31;66602;48.922;2.414;2023-03-12T13:42:35;15.51;52.13
77100;SHT31;66602;48.922;2.414;2023-03-12T13:44:54;16.25;50.90
77100;SHT31;66602;48.922;2.414;2023-03-12T13:47:33;17.63;47.00
77100;SHT31;66602;48.922;2.414;2023-03-12T13:50:06;18.18;45.56
77100;SHT31;66602;48.922;2.414;2023-03-12T13:52:40;17.36;47.82
77100;SHT31;66602;48.922;2.414;2023-03-12T13:58:12;16.76;50.81
77100;SHT31;66602;48.922;2.414;2023-03-12T14:00:42;16.85;50.62
77100;SHT31;66602;48.922;2.414;2023-03-12T14:03:15;16.88;50.97
77100;SHT31;66602;48.922;2.414;2023-03-12T14:05:57;17.83;48.91
77100;SHT31;66602;48.922;2.414;2023-03-12T14:11:22;18.21;47.80
77100;SHT31;66602;48.922;2.414;2023-03-12T14:18:48;16.23;53.64
77100;SHT31;66602;48.922;2.414;2023-03-12T14:21:15;16.36;52.78
77100;SHT31;66602;48.922;2.414;2023-03-12T14:23:52;17.01;50.96
77100;SHT31;66602;48.922;2.414;2023-03-12T14:26:22;16.97;51.01
77100;SHT31;66602;48.922;2.414;2023-03-12T14:32:04;16.18;53.48
77100;SHT31;66602;48.922;2.414;2023-03-12T14:34:37;15.74;54.48
77100;SHT31;66602;48.922;2.414;2023-03-12T14:37:20;15.88;54.66
77100;SHT31;66602;48.922;2.414;2023-03-12T14:39:54;15.91;54.39
77100;SHT31;66602;48.922;2.414;2023-03-12T14:42:33;15.82;54.40
77100;SHT31;66602;48.922;2.414;2023-03-12T14:47:39;17.17;50.14
77100;SHT31;66602;48.922;2.414;2023-03-12T14:50:05;17.62;48.70
77100;SHT31;66602;48.922;2.414;2023-03-12T14:52:31;17.63;46.58
77100;SHT31;66602;48.922;2.414;2023-03-12T14:55:01;17.34;47.90
77100;SHT31;66602;48.922;2.414;2023-03-12T14:57:29;16.46;50.78
77100;SHT31;66602;48.922;2.414;2023-03-12T14:59:59;16.85;50.03
77100;SHT31;66602;48.922;2.414;2023-03-12T15:02:27;16.56;51.87
77100;SHT31;66602;48.922;2.414;2023-03-12T15:04:56;16.25;53.08
77100;SHT31;66602;48.922;2.414;2023-03-12T15:07:35;16.52;52.95
77100;SHT31;66602;48.922;2.414;2023-03-12T15:10:14;16.40;53.36
77100;SHT31;66602;48.922;2.414;2023-03-12T15:12:43;15.84;54.32
77100;SHT31;66602;48.922;2.414;2023-03-12T15:15:26;15.60;55.42
77100;SHT31;66602;48.922;2.414;2023-03-12T15:17:53;15.68;54.65
77100;SHT31;66602;48.922;2.414;2023-03-12T15:20:20;15.58;54.88
77100;SHT31;66602;48.922;2.414;2023-03-12T15:22:47;15.61;54.43
77100;SHT31;66602;48.922;2.414;2023-03-12T15:25:25;15.68;54.72
77100;SHT31;66602;48.922;2.414;2023-03-12T15:30:40;16.90;51.36
77100;SHT31;66602;48.922;2.414;2023-03-12T15:35:40;16.33;53.16
77100;SHT31;66602;48.922;2.414;2023-03-12T15:38:13;15.55;55.47
77100;SHT31;66602;48.922;2.414;2023-03-12T15:40:39;15.61;55.48
77100;SHT31;66602;48.922;2.414;2023-03-12T15:43:05;15.55;55.75
77100;SHT31;66602;48.922;2.414;2023-03-12T15:45:35;15.20;56.63
77100;SHT31;66602;48.922;2.414;2023-03-12T15:48:12;15.54;55.84
77100;SHT31;66602;48.922;2.414;2023-03-12T15:50:40;15.07;57.18
77100;SHT31;66602;48.922;2.414;2023-03-12T15:55:39;14.75;58.63
77100;SHT31;66602;48.922;2.414;2023-03-12T15:58:31;14.37;59.74
77100;SHT31;66602;48.922;2.414;2023-03-12T16:01:17;14.13;61.10
77100;SHT31;66602;48.922;2.414;2023-03-12T16:03:48;14.10;61.30
77100;SHT31;66602;48.922;2.414;2023-03-12T16:06:15;14.03;61.69
77100;SHT31;66602;48.922;2.414;2023-03-12T16:08:47;13.97;62.41
77100;SHT31;66602;48.922;2.414;2023-03-12T16:11:17;13.94;62.46
77100;SHT31;66602;48.922;2.414;2023-03-12T16:13:44;13.94;62.43
77100;SHT31;66602;48.922;2.414;2023-03-12T16:16:12;14.00;62.15
77100;SHT31;66602;48.922;2.414;2023-03-12T16:18:39;14.01;62.05
77100;SHT31;66602;48.922;2.414;2023-03-12T16:21:05;14.01;61.44
77100;SHT31;66602;48.922;2.414;2023-03-12T16:23:31;13.91;61.73
77100;SHT31;66602;48.922;2.414;2023-03-12T16:25:58;13.91;61.69
77100;SHT31;66602;48.922;2.414;2023-03-12T16:28:24;13.94;61.80
77100;SHT31;66602;48.922;2.414;2023-03-12T16:30:51;14.00;61.64
77100;SHT31;66602;48.922;2.414;2023-03-12T16:33:19;13.91;62.17
77100;SHT31;66602;48.922;2.414;2023-03-12T16:35:45;13.94;62.37
77100;SHT31;66602;48.922;2.414;2023-03-12T16:38:11;13.87;62.63
77100;SHT31;66602;48.922;2.414;2023-03-12T16:40:42;13.83;62.83
77100;SHT31;66602;48.922;2.414;2023-03-12T16:43:14;13.76;63.21
77100;SHT31;66602;48.922;2.414;2023-03-12T16:45:42;13.74;63.35
77100;SHT31;66602;48.922;2.414;2023-03-12T16:48:14;13.73;63.69
77100;SHT31;66602;48.922;2.414;2023-03-12T16:50:47;13.70;64.19
77100;SHT31;66602;48.922;2.414;2023-03-12T16:53:14;13.62;64.67
77100;SHT31;66602;48.922;2.414;2023-03-12T16:55:52;13.55;65.14
77100;SHT31;66602;48.922;2.414;2023-03-12T16:58:20;13.46;65.71
77100;SHT31;66602;48.922;2.414;2023-03-12T17:00:47;13.42;66.06
77100;SHT31;66602;48.922;2.414;2023-03-12T17:03:32;13.43;66.45
77100;SHT31;66602;48.922;2.414;2023-03-12T17:05:58;13.36;66.76
77100;SHT31;66602;48.922;2.414;2023-03-12T17:08:24;13.32;67.08
77100;SHT31;66602;48.922;2.414;2023-03-12T17:10:51;13.26;67.34
77100;SHT31;66602;48.922;2.414;2023-03-12T17:13:27;13.29;67.39
77100;SHT31;66602;48.922;2.414;2023-03-12T17:15:54;13.26;67.62
77100;SHT31;66602;48.922;2.414;2023-03-12T17:18:20;13.18;67.98
77100;SHT31;66602;48.922;2.414;2023-03-12T17:20:48;13.16;68.07
77100;SHT31;66602;48.922;2.414;2023-03-12T17:23:15;13.08;68.58
77100;SHT31;66602;48.922;2.414;2023-03-12T17:25:42;13.07;68.68
77100;SHT31;66602;48.922;2.414;2023-03-12T17:28:09;13.12;68.78
77100;SHT31;66602;48.922;2.414;2023-03-12T17:30:36;13.10;68.79
77100;SHT31;66602;48.922;2.414;2023-03-12T17:33:03;13.07;69.07
77100;SHT31;66602;48.922;2.414;2023-03-12T17:35:30;13.02;69.44
77100;SHT31;66602;48.922;2.414;2023-03-12T17:37:57;12.97;69.61
77100;SHT31;66602;48.922;2.414;2023-03-12T17:40:23;12.92;69.77
77100;SHT31;66602;48.922;2.414;2023-03-12T17:42:50;12.91;69.96
77100;SHT31;66602;48.922;2.414;2023-03-12T17:45:16;12.87;70.29
77100;SHT31;66602;48.922;2.414;2023-03-12T17:47:42;12.77;70.66
77100;SHT31;66602;48.922;2.414;2023-03-12T17:50:09;12.77;70.88
77100;SHT31;66602;48.922;2.414;2023-03-12T17:52:35;12.73;71.02
77100;SHT31;66602;48.922;2.414;2023-03-12T17:55:01;12.71;71.22
77100;SHT31;66602;48.922;2.414;2023-03-12T17:57:28;12.67;71.53